sensor_id;sensor_type;location;lat;lon;timestamp;P1;durP1;ratioP1;P2;durP2;ratioP2
22421;SDS011;11378;51.642;7.668;2023-03-04T00:00:22;5.57;;;3.60;;
22421;SDS011;11378;51.642;7.668;2023-03-04T00:02:48;5.22;;;3.67;;
22421;SDS011;11378;51.642;7.668;2023-03-04T00:05:14;4.45;;;3.25;;
22421;SDS011;11378;51.642;7.668;2023-03-04T00:07:41;5.03;;;3.50;;
22421;SDS011;11378;51.642;7.668;2023-03-04T00:10:07;5.05;;;3.70;;
22421;SDS011;11378;51.642;7.668;2023-03-04T00:12:33;5.60;;;3.35;;
22421;SDS011;11378;51.642;7.668;2023-03-04T00:15:00;4.55;;;3.28;;
22421;SDS011;11378;51.642;7.668;2023-03-04T00:17:26;4.85;;;3.47;;
22421;SDS011;11378;51.642;7.668;2023-03-04T00:19:54;4.47;;;3.22;;
22421;SDS011;11378;51.642;7.668;2023-03-04T00:22:20;4.20;;;3.35;;
22421;SDS011;11378;51.642;7.668;2023-03-04T00:24:47;4.25;;;3.05;;
22421;SDS011;11378;51.642;7.668;2023-03-04T00:27:13;5.53;;;3.50;;
22421;SDS011;11378;51.642;7.668;2023-03-04T00:29:40;4.80;;;3.30;;
22421;SDS011;11378;51.642;7.668;2023-03-04T00:32:06;5.28;;;3.42;;
22421;SDS011;11378;51.642;7.668;2023-03-04T00:34:33;3.85;;;3.05;;
22421;SDS011;11378;51.642;7.668;2023-03-04T00:37:00;4.20;;;3.17;;
22421;SDS011;11378;51.642;7.668;2023-03-04T00:39:27;5.00;;;3.35;;
22421;SDS011;11378;51.642;7.668;2023-03-04T00:41:54;4.15;;;3.00;;
22421;SDS011;11378;51.642;7.668;2023-03-04T00:44:20;4.70;;;3.08;;
22421;SDS011;11378;51.642;7.668;2023-03-04T00:46:47;4.18;;;3.00;;
22421;SDS011;11378;51.642;7.668;2023-03-04T00:49:13;4.28;;;2.88;;
22421;SDS011;11378;51.642;7.668;2023-03-04T00:51:40;3.55;;;2.90;;
22421;SDS011;11378;51.642;7.668;2023-03-04T00:54:06;3.83;;;2.75;;
22421;SDS011;11378;51.642;7.668;2023-03-04T00:56:32;3.40;;;2.53;;
22421;SDS011;11378;51.642;7.668;2023-03-04T00:58:59;3.40;;;2.65;;
22421;SDS011;11378;51.642;7.668;2023-03-04T01:01:25;4.63;;;3.08;;
22421;SDS011;11378;51.642;7.668;2023-03-04T01:03:52;3.80;;;2.90;;
22421;SDS011;11378;51.642;7.668;2023-03-04T01:06:18;3.47;;;2.60;;
22421;SDS011;11378;51.642;7.668;2023-03-04T01:08:44;3.58;;;2.63;;
22421;SDS011;11378;51.642;7.668;2023-03-04T01:11:12;4.05;;;3.38;;
22421;SDS011;11378;51.642;7.668;2023-03-04T01:13:38;3.17;;;2.60;;
22421;SDS011;11378;51.642;7.668;2023-03-04T01:16:05;3.92;;;2.83;;
22421;SDS011;11378;51.642;7.668;2023-03-04T01:18:32;4.18;;;2.97;;
22421;SDS011;11378;51.642;7.668;2023-03-04T01:20:59;4.13;;;2.63;;
22421;SDS011;11378;51.642;7.668;2023-03-04T01:23:28;4.15;;;3.33;;
22421;SDS011;11378;51.642;7.668;2023-03-04T01:25:54;3.35;;;2.60;;
22421;SDS011;11378;51.642;7.668;2023-03-04T01:28:20;3.70;;;2.85;;
22421;SDS011;11378;51.642;7.668;2023-03-04T01:30:46;3.30;;;2.58;;
22421;SDS011;11378;51.642;7.668;2023-03-04T01:33:13;4.13;;;3.00;;
22421;SDS011;11378;51.642;7.668;2023-03-04T01:35:40;3.60;;;2.80;;
22421;SDS011;11378;51.642;7.668;2023-03-04T01:38:07;4.40;;;2.88;;
22421;SDS011;11378;51.642;7.668;2023-03-04T01:40:33;3.03;;;2.60;;
22421;SDS011;11378;51.642;7.668;2023-03-04T01:43:00;3.45;;;2.42;;
22421;SDS011;11378;51.642;7.668;2023-03-04T01:45:26;4.13;;;2.67;;
22421;SDS011;11378;51.642;7.668;2023-03-04T01:47:53;4.03;;;2.63;;
22421;SDS011;11378;51.642;7.668;2023-03-04T01:50:26;3.78;;;2.67;;
22421;SDS011;11378;51.642;7.668;2023-03-04T01:52:53;3.55;;;2.80;;
22421;SDS011;11378;51.642;7.668;2023-03-04T01:55:21;4.13;;;2.55;;
22421;SDS011;11378;51.642;7.668;2023-03-04T01:57:48;3.67;;;2.50;;
22421;SDS011;11378;51.642;7.668;2023-03-04T02:00:23;4.05;;;2.65;;
22421;SDS011;11378;51.642;7.668;2023-03-04T02:02:54;4.35;;;2.60;;
22421;SDS011;11378;51.642;7.668;2023-03-04T02:05:22;4.63;;;3.42;;
22421;SDS011;11378;51.642;7.668;2023-03-04T02:07:49;4.07;;;3.00;;
22421;SDS011;11378;51.642;7.668;2023-03-04T02:10:16;3.47;;;2.38;;
22421;SDS011;11378;51.642;7.668;2023-03-04T02:12:43;4.05;;;2.70;;
22421;SDS011;11378;51.642;7.668;2023-03-04T02:15:09;3.40;;;2.67;;
22421;SDS011;11378;51.642;7.668;2023-03-04T02:17:36;4.93;;;2.65;;
22421;SDS011;11378;51.642;7.668;2023-03-04T02:20:12;3.22;;;2.45;;
22421;SDS011;11378;51.642;7.668;2023-03-04T02:22:42;3.38;;;2.55;;
22421;SDS011;11378;51.642;7.668;2023-03-04T02:25:12;3.42;;;2.50;;
22421;SDS011;11378;51.642;7.668;2023-03-04T02:27:41;3.95;;;2.58;;
22421;SDS011;11378;51.642;7.668;2023-03-04T02:30:09;4.07;;;2.85;;
22421;SDS011;11378;51.642;7.668;2023-03-04T02:32:36;3.92;;;2.70;;
22421;SDS011;11378;51.642;7.668;2023-03-04T02:35:02;3.50;;;2.38;;
22421;SDS011;11378;51.642;7.668;2023-03-04T02:37:29;3.75;;;2.42;;
22421;SDS011;11378;51.642;7.668;2023-03-04T02:39:55;4.65;;;2.70;;
22421;SDS011;11378;51.642;7.668;2023-03-04T02:42:22;3.75;;;2.03;;
22421;SDS011;11378;51.642;7.668;2023-03-04T02:44:48;3.75;;;2.65;;
22421;SDS011;11378;51.642;7.668;2023-03-04T02:47:17;3.13;;;2.40;;
22421;SDS011;11378;51.642;7.668;2023-03-04T02:49:44;3.95;;;2.40;;
22421;SDS011;11378;51.642;7.668;2023-03-04T02:52:13;2.90;;;2.42;;
22421;SDS011;11378;51.642;7.668;2023-03-04T02:54:39;3.70;;;2.70;;
22421;SDS011;11378;51.642;7.668;2023-03-04T02:57:07;2.45;;;2.08;;
22421;SDS011;11378;51.642;7.668;2023-03-04T02:59:36;2.83;;;2.35;;
22421;SDS011;11378;51.642;7.668;2023-03-04T03:02:03;3.63;;;2.42;;
22421;SDS011;11378;51.642;7.668;2023-03-04T03:04:31;2.45;;;2.17;;
22421;SDS011;11378;51.642;7.668;2023-03-04T03:06:57;2.70;;;2.10;;
22421;SDS011;11378;51.642;7.668;2023-03-04T03:09:24;3.75;;;2.42;;
22421;SDS011;11378;51.642;7.668;2023-03-04T03:11:51;2.65;;;2.00;;
22421;SDS011;11378;51.642;7.668;2023-03-04T03:14:18;3.08;;;2.35;;
22421;SDS011;11378;51.642;7.668;2023-03-04T03:16:44;3.75;;;2.60;;
22421;SDS011;11378;51.642;7.668;2023-03-04T03:19:11;3.33;;;2.58;;
22421;SDS011;11378;51.642;7.668;2023-03-04T03:21:38;3.03;;;2.17;;
22421;SDS011;11378;51.642;7.668;2023-03-04T03:24:04;2.97;;;2.30;;
22421;SDS011;11378;51.642;7.668;2023-03-04T03:26:31;3.83;;;2.53;;
22421;SDS011;11378;51.642;7.668;2023-03-04T03:28:57;3.05;;;2.25;;
22421;SDS011;11378;51.642;7.668;2023-03-04T03:31:26;3.28;;;2.20;;
22421;SDS011;11378;51.642;7.668;2023-03-04T03:33:52;2.58;;;2.05;;
22421;SDS011;11378;51.642;7.668;2023-03-04T03:36:19;2.97;;;2.28;;
22421;SDS011;11378;51.642;7.668;2023-03-04T03:38:45;2.25;;;1.95;;
22421;SDS011;11378;51.642;7.668;2023-03-04T03:41:12;2.20;;;2.00;;
22421;SDS011;11378;51.642;7.668;2023-03-04T03:43:38;3.75;;;2.50;;
22421;SDS011;11378;51.642;7.668;2023-03-04T03:46:05;3.10;;;2.00;;
22421;SDS011;11378;51.642;7.668;2023-03-04T03:48:31;2.40;;;2.13;;
22421;SDS011;11378;51.642;7.668;2023-03-04T03:50:57;2.83;;;2.00;;
22421;SDS011;11378;51.642;7.668;2023-03-04T03:53:24;3.88;;;2.00;;
22421;SDS011;11378;51.642;7.668;2023-03-04T03:55:50;2.63;;;1.73;;
22421;SDS011;11378;51.642;7.668;2023-03-04T03:58:16;2.83;;;2.00;;
22421;SDS011;11378;51.642;7.668;2023-03-04T04:00:43;2.83;;;2.05;;
22421;SDS011;11378;51.642;7.668;2023-03-04T04:03:10;2.72;;;2.10;;
22421;SDS011;11378;51.642;7.668;2023-03-04T04:05:39;2.20;;;1.70;;
22421;SDS011;11378;51.642;7.668;2023-03-04T04:08:05;3.53;;;2.20;;
22421;SDS011;11378;51.642;7.668;2023-03-04T04:10:31;2.67;;;2.10;;
22421;SDS011;11378;51.642;7.668;2023-03-04T04:12:58;1.98;;;1.75;;
22421;SDS011;11378;51.642;7.668;2023-03-04T04:15:24;1.92;;;1.73;;
22421;SDS011;11378;51.642;7.668;2023-03-04T04:17:51;2.72;;;2.15;;
22421;SDS011;11378;51.642;7.668;2023-03-04T04:20:17;2.97;;;2.22;;
22421;SDS011;11378;51.642;7.668;2023-03-04T04:22:44;2.58;;;1.80;;
22421;SDS011;11378;51.642;7.668;2023-03-04T04:25:10;2.40;;;1.90;;
22421;SDS011;11378;51.642;7.668;2023-03-04T04:27:36;2.58;;;1.98;;
22421;SDS011;11378;51.642;7.668;2023-03-04T04:30:03;2.70;;;1.90;;
22421;SDS011;11378;51.642;7.668;2023-03-04T04:32:30;2.53;;;1.95;;
22421;SDS011;11378;51.642;7.668;2023-03-04T04:34:56;2.47;;;1.80;;
22421;SDS011;11378;51.642;7.668;2023-03-04T04:37:22;2.45;;;1.90;;
22421;SDS011;11378;51.642;7.668;2023-03-04T04:39:49;2.85;;;2.10;;
22421;SDS011;11378;51.642;7.668;2023-03-04T04:42:16;3.00;;;2.05;;
22421;SDS011;11378;51.642;7.668;2023-03-04T04:44:42;2.90;;;2.03;;
22421;SDS011;11378;51.642;7.668;2023-03-04T04:47:09;2.75;;;2.00;;
22421;SDS011;11378;51.642;7.668;2023-03-04T04:49:35;2.70;;;2.10;;
22421;SDS011;11378;51.642;7.668;2023-03-04T04:52:01;2.20;;;1.95;;
22421;SDS011;11378;51.642;7.668;2023-03-04T04:54:28;1.60;;;1.50;;
22421;SDS011;11378;51.642;7.668;2023-03-04T04:56:54;4.15;;;2.10;;
22421;SDS011;11378;51.642;7.668;2023-03-04T04:59:21;3.83;;;2.05;;
22421;SDS011;11378;51.642;7.668;2023-03-04T05:01:47;2.38;;;1.80;;
22421;SDS011;11378;51.642;7.668;2023-03-04T05:04:14;2.38;;;1.63;;
22421;SDS011;11378;51.642;7.668;2023-03-04T05:06:40;1.92;;;1.50;;
22421;SDS011;11378;51.642;7.668;2023-03-04T05:09:07;2.33;;;1.92;;
22421;SDS011;11378;51.642;7.668;2023-03-04T05:11:33;2.50;;;1.80;;
22421;SDS011;11378;51.642;7.668;2023-03-04T05:14:00;3.42;;;1.80;;
22421;SDS011;11378;51.642;7.668;2023-03-04T05:16:26;2.50;;;1.70;;
22421;SDS011;11378;51.642;7.668;2023-03-04T05:18:53;1.70;;;1.48;;
22421;SDS011;11378;51.642;7.668;2023-03-04T05:21:19;2.03;;;1.77;;
22421;SDS011;11378;51.642;7.668;2023-03-04T05:23:46;1.90;;;1.55;;
22421;SDS011;11378;51.642;7.668;2023-03-04T05:26:13;3.00;;;1.85;;
22421;SDS011;11378;51.642;7.668;2023-03-04T05:28:41;1.52;;;1.38;;
22421;SDS011;11378;51.642;7.668;2023-03-04T05:31:07;2.28;;;1.90;;
22421;SDS011;11378;51.642;7.668;2023-03-04T05:33:34;2.58;;;1.80;;
22421;SDS011;11378;51.642;7.668;2023-03-04T05:36:01;1.70;;;1.50;;
22421;SDS011;11378;51.642;7.668;2023-03-04T05:38:27;2.55;;;1.73;;
22421;SDS011;11378;51.642;7.668;2023-03-04T05:40:58;2.50;;;1.52;;
22421;SDS011;11378;51.642;7.668;2023-03-04T05:43:25;2.50;;;1.75;;
22421;SDS011;11378;51.642;7.668;2023-03-04T05:45:52;2.83;;;1.60;;
22421;SDS011;11378;51.642;7.668;2023-03-04T05:48:18;1.80;;;1.60;;
22421;SDS011;11378;51.642;7.668;2023-03-04T05:50:45;2.70;;;1.88;;
22421;SDS011;11378;51.642;7.668;2023-03-04T05:53:12;2.03;;;1.65;;
22421;SDS011;11378;51.642;7.668;2023-03-04T05:55:38;2.33;;;1.40;;
22421;SDS011;11378;51.642;7.668;2023-03-04T05:58:04;2.05;;;1.70;;
22421;SDS011;11378;51.642;7.668;2023-03-04T06:00:31;1.90;;;1.70;;
22421;SDS011;11378;51.642;7.668;2023-03-04T06:02:57;2.50;;;1.80;;
22421;SDS011;11378;51.642;7.668;2023-03-04T06:05:24;3.00;;;1.92;;
22421;SDS011;11378;51.642;7.668;2023-03-04T06:07:50;1.98;;;1.67;;
22421;SDS011;11378;51.642;7.668;2023-03-04T06:10:17;2.50;;;1.75;;
22421;SDS011;11378;51.642;7.668;2023-03-04T06:12:43;1.88;;;1.67;;
22421;SDS011;11378;51.642;7.668;2023-03-04T06:15:10;1.83;;;1.55;;
22421;SDS011;11378;51.642;7.668;2023-03-04T06:17:37;2.45;;;1.85;;
22421;SDS011;11378;51.642;7.668;2023-03-04T06:20:04;1.50;;;1.40;;
22421;SDS011;11378;51.642;7.668;2023-03-04T06:22:32;3.20;;;1.80;;
22421;SDS011;11378;51.642;7.668;2023-03-04T06:24:58;3.03;;;1.60;;
22421;SDS011;11378;51.642;7.668;2023-03-04T06:27:25;1.58;;;1.48;;
22421;SDS011;11378;51.642;7.668;2023-03-04T06:29:52;1.63;;;1.30;;
22421;SDS011;11378;51.642;7.668;2023-03-04T06:32:19;1.88;;;1.45;;
22421;SDS011;11378;51.642;7.668;2023-03-04T06:34:45;2.10;;;1.65;;
22421;SDS011;11378;51.642;7.668;2023-03-04T06:37:11;2.10;;;1.50;;
22421;SDS011;11378;51.642;7.668;2023-03-04T06:39:38;2.08;;;1.88;;
22421;SDS011;11378;51.642;7.668;2023-03-04T06:42:04;2.03;;;1.50;;
22421;SDS011;11378;51.642;7.668;2023-03-04T06:44:31;1.33;;;1.23;;
22421;SDS011;11378;51.642;7.668;2023-03-04T06:46:57;1.42;;;1.27;;
22421;SDS011;11378;51.642;7.668;2023-03-04T06:49:23;1.88;;;1.67;;
22421;SDS011;11378;51.642;7.668;2023-03-04T06:51:50;2.30;;;1.55;;
22421;SDS011;11378;51.642;7.668;2023-03-04T06:54:17;2.50;;;1.10;;
22421;SDS011;11378;51.642;7.668;2023-03-04T06:56:44;2.17;;;1.80;;
22421;SDS011;11378;51.642;7.668;2023-03-04T06:59:10;1.75;;;1.38;;
22421;SDS011;11378;51.642;7.668;2023-03-04T07:01:37;2.05;;;1.50;;
22421;SDS011;11378;51.642;7.668;2023-03-04T07:04:03;1.30;;;1.20;;
22421;SDS011;11378;51.642;7.668;2023-03-04T07:06:30;4.35;;;1.60;;
22421;SDS011;11378;51.642;7.668;2023-03-04T07:08:56;2.25;;;1.75;;
22421;SDS011;11378;51.642;7.668;2023-03-04T07:11:23;1.92;;;1.50;;
22421;SDS011;11378;51.642;7.668;2023-03-04T07:13:50;1.73;;;1.45;;
22421;SDS011;11378;51.642;7.668;2023-03-04T07:16:17;1.80;;;1.40;;
22421;SDS011;11378;51.642;7.668;2023-03-04T07:18:45;2.03;;;1.42;;
22421;SDS011;11378;51.642;7.668;2023-03-04T07:21:12;1.50;;;1.15;;
22421;SDS011;11378;51.642;7.668;2023-03-04T07:23:39;2.83;;;1.50;;
22421;SDS011;11378;51.642;7.668;2023-03-04T07:26:05;3.38;;;1.52;;
22421;SDS011;11378;51.642;7.668;2023-03-04T07:28:32;2.38;;;1.40;;
22421;SDS011;11378;51.642;7.668;2023-03-04T07:33:35;2.17;;;1.42;;
22421;SDS011;11378;51.642;7.668;2023-03-04T07:36:01;1.48;;;1.23;;
22421;SDS011;11378;51.642;7.668;2023-03-04T07:38:28;3.05;;;1.30;;
22421;SDS011;11378;51.642;7.668;2023-03-04T07:40:55;1.48;;;1.30;;
22421;SDS011;11378;51.642;7.668;2023-03-04T07:43:22;1.65;;;1.20;;
22421;SDS011;11378;51.642;7.668;2023-03-04T07:45:48;3.00;;;1.40;;
22421;SDS011;11378;51.642;7.668;2023-03-04T07:48:14;2.55;;;1.05;;
22421;SDS011;11378;51.642;7.668;2023-03-04T07:50:42;2.88;;;1.23;;
22421;SDS011;11378;51.642;7.668;2023-03-04T07:53:08;2.28;;;1.30;;
22421;SDS011;11378;51.642;7.668;2023-03-04T07:55:34;2.22;;;1.33;;
22421;SDS011;11378;51.642;7.668;2023-03-04T07:58:01;1.38;;;1.27;;
22421;SDS011;11378;51.642;7.668;2023-03-04T08:00:27;1.67;;;1.20;;
22421;SDS011;11378;51.642;7.668;2023-03-04T08:02:53;1.50;;;1.30;;
22421;SDS011;11378;51.642;7.668;2023-03-04T08:05:20;1.27;;;1.17;;
22421;SDS011;11378;51.642;7.668;2023-03-04T08:07:46;1.17;;;1.10;;
22421;SDS011;11378;51.642;7.668;2023-03-04T08:10:12;2.00;;;1.23;;
22421;SDS011;11378;51.642;7.668;2023-03-04T08:12:38;2.50;;;1.40;;
22421;SDS011;11378;51.642;7.668;2023-03-04T08:15:05;2.05;;;1.30;;
22421;SDS011;11378;51.642;7.668;2023-03-04T08:17:31;2.03;;;1.30;;
22421;SDS011;11378;51.642;7.668;2023-03-04T08:19:58;1.38;;;1.27;;
22421;SDS011;11378;51.642;7.668;2023-03-04T08:22:24;1.65;;;1.35;;
22421;SDS011;11378;51.642;7.668;2023-03-04T08:24:50;1.85;;;1.10;;
22421;SDS011;11378;51.642;7.668;2023-03-04T08:27:17;1.85;;;1.40;;
22421;SDS011;11378;51.642;7.668;2023-03-04T08:29:43;1.35;;;1.13;;
22421;SDS011;11378;51.642;7.668;2023-03-04T08:32:09;2.28;;;1.10;;
22421;SDS011;11378;51.642;7.668;2023-03-04T08:34:35;1.73;;;1.40;;
22421;SDS011;11378;51.642;7.668;2023-03-04T08:37:03;1.48;;;1.38;;
22421;SDS011;11378;51.642;7.668;2023-03-04T08:39:30;1.63;;;1.35;;
22421;SDS011;11378;51.642;7.668;2023-03-04T08:41:57;1.48;;;1.10;;
22421;SDS011;11378;51.642;7.668;2023-03-04T08:44:24;1.50;;;1.33;;
22421;SDS011;11378;51.642;7.668;2023-03-04T08:46:50;1.40;;;1.08;;
22421;SDS011;11378;51.642;7.668;2023-03-04T08:49:16;1.38;;;1.10;;
22421;SDS011;11378;51.642;7.668;2023-03-04T08:51:42;1.65;;;1.38;;
22421;SDS011;11378;51.642;7.668;2023-03-04T08:54:09;1.50;;;1.10;;
22421;SDS011;11378;51.642;7.668;2023-03-04T08:56:36;2.03;;;1.30;;
22421;SDS011;11378;51.642;7.668;2023-03-04T08:59:05;1.20;;;1.10;;
22421;SDS011;11378;51.642;7.668;2023-03-04T09:01:31;1.67;;;1.30;;
22421;SDS011;11378;51.642;7.668;2023-03-04T09:03:57;1.30;;;1.20;;
22421;SDS011;11378;51.642;7.668;2023-03-04T09:06:23;1.42;;;1.10;;
22421;SDS011;11378;51.642;7.668;2023-03-04T09:08:49;1.13;;;1.02;;
22421;SDS011;11378;51.642;7.668;2023-03-04T09:11:16;2.05;;;1.40;;
22421;SDS011;11378;51.642;7.668;2023-03-04T09:13:42;1.92;;;1.30;;
22421;SDS011;11378;51.642;7.668;2023-03-04T09:16:12;1.38;;;1.20;;
22421;SDS011;11378;51.642;7.668;2023-03-04T09:18:39;1.10;;;1.00;;
22421;SDS011;11378;51.642;7.668;2023-03-04T09:21:05;1.10;;;1.10;;
22421;SDS011;11378;51.642;7.668;2023-03-04T09:23:32;1.42;;;1.13;;
22421;SDS011;11378;51.642;7.668;2023-03-04T09:25:59;1.33;;;1.23;;
22421;SDS011;11378;51.642;7.668;2023-03-04T09:28:25;1.20;;;1.10;;
22421;SDS011;11378;51.642;7.668;2023-03-04T09:30:51;1.40;;;1.13;;
22421;SDS011;11378;51.642;7.668;2023-03-04T09:33:18;2.13;;;1.05;;
22421;SDS011;11378;51.642;7.668;2023-03-04T09:35:44;1.25;;;1.00;;
22421;SDS011;11378;51.642;7.668;2023-03-04T09:38:12;1.52;;;1.10;;
22421;SDS011;11378;51.642;7.668;2023-03-04T09:40:45;1.50;;;1.23;;
22421;SDS011;11378;51.642;7.668;2023-03-04T09:43:31;2.40;;;1.23;;
22421;SDS011;11378;51.642;7.668;2023-03-04T09:46:02;1.30;;;1.15;;
22421;SDS011;11378;51.642;7.668;2023-03-04T09:48:29;1.20;;;1.10;;
22421;SDS011;11378;51.642;7.668;2023-03-04T09:53:46;1.20;;;1.10;;
22421;SDS011;11378;51.642;7.668;2023-03-04T09:56:14;1.10;;;1.00;;
22421;SDS011;11378;51.642;7.668;2023-03-04T10:01:19;1.98;;;1.10;;
22421;SDS011;11378;51.642;7.668;2023-03-04T10:03:50;1.13;;;1.00;;
22421;SDS011;11378;51.642;7.668;2023-03-04T10:06:19;0.95;;;0.93;;
22421;SDS011;11378;51.642;7.668;2023-03-04T10:08:51;2.13;;;1.25;;
22421;SDS011;11378;51.642;7.668;2023-03-04T10:11:26;1.27;;;0.95;;
22421;SDS011;11378;51.642;7.668;2023-03-04T10:16:39;1.23;;;1.02;;
22421;SDS011;11378;51.642;7.668;2023-03-04T10:21:46;2.10;;;1.23;;
22421;SDS011;11378;51.642;7.668;2023-03-04T10:24:17;1.55;;;1.02;;
22421;SDS011;11378;51.642;7.668;2023-03-04T10:26:45;1.95;;;1.33;;
22421;SDS011;11378;51.642;7.668;2023-03-04T10:29:15;1.58;;;0.93;;
22421;SDS011;11378;51.642;7.668;2023-03-04T10:34:09;1.48;;;1.13;;
22421;SDS011;11378;51.642;7.668;2023-03-04T10:39:18;1.20;;;1.00;;
22421;SDS011;11378;51.642;7.668;2023-03-04T10:41:53;2.42;;;1.20;;
22421;SDS011;11378;51.642;7.668;2023-03-04T10:44:19;1.52;;;1.20;;
22421;SDS011;11378;51.642;7.668;2023-03-04T10:46:47;1.10;;;1.00;;
22421;SDS011;11378;51.642;7.668;2023-03-04T10:49:14;1.70;;;1.08;;
22421;SDS011;11378;51.642;7.668;2023-03-04T10:52:03;1.20;;;1.10;;
22421;SDS011;11378;51.642;7.668;2023-03-04T10:57:12;0.90;;;0.75;;
22421;SDS011;11378;51.642;7.668;2023-03-04T11:02:28;1.10;;;1.00;;
22421;SDS011;11378;51.642;7.668;2023-03-04T11:07:50;1.00;;;0.90;;
22421;SDS011;11378;51.642;7.668;2023-03-04T11:10:17;1.42;;;1.02;;
22421;SDS011;11378;51.642;7.668;2023-03-04T11:12:51;1.67;;;1.10;;
22421;SDS011;11378;51.642;7.668;2023-03-04T11:15:22;0.95;;;0.90;;
22421;SDS011;11378;51.642;7.668;2023-03-04T11:18:08;1.00;;;0.88;;
22421;SDS011;11378;51.642;7.668;2023-03-04T11:20:36;1.70;;;1.00;;
22421;SDS011;11378;51.642;7.668;2023-03-04T11:23:05;1.48;;;1.13;;
22421;SDS011;11378;51.642;7.668;2023-03-04T11:25:37;0.85;;;0.85;;
22421;SDS011;11378;51.642;7.668;2023-03-04T11:28:17;1.33;;;1.23;;
22421;SDS011;11378;51.642;7.668;2023-03-04T11:30:47;1.13;;;1.00;;
22421;SDS011;11378;51.642;7.668;2023-03-04T11:35:47;2.20;;;0.95;;
22421;SDS011;11378;51.642;7.668;2023-03-04T11:38:20;1.88;;;0.85;;
22421;SDS011;11378;51.642;7.668;2023-03-04T11:40:53;1.20;;;1.10;;
22421;SDS011;11378;51.642;7.668;2023-03-04T11:43:31;1.23;;;0.95;;
22421;SDS011;11378;51.642;7.668;2023-03-04T11:51:22;1.00;;;0.90;;
22421;SDS011;11378;51.642;7.668;2023-03-04T11:53:52;1.50;;;1.10;;
22421;SDS011;11378;51.642;7.668;2023-03-04T12:01:32;1.27;;;1.17;;
22421;SDS011;11378;51.642;7.668;2023-03-04T12:04:14;1.00;;;0.90;;
22421;SDS011;11378;51.642;7.668;2023-03-04T12:06:58;1.10;;;1.00;;
22421;SDS011;11378;51.642;7.668;2023-03-04T12:35:34;0.90;;;0.90;;
22421;SDS011;11378;51.642;7.668;2023-03-04T12:38:15;1.67;;;1.05;;
22421;SDS011;11378;51.642;7.668;2023-03-04T12:40:52;2.17;;;1.08;;
22421;SDS011;11378;51.642;7.668;2023-03-04T12:51:03;1.63;;;1.52;;
22421;SDS011;11378;51.642;7.668;2023-03-04T12:56:21;2.08;;;0.90;;
22421;SDS011;11378;51.642;7.668;2023-03-04T12:58:48;3.33;;;0.80;;
22421;SDS011;11378;51.642;7.668;2023-03-04T13:01:16;1.20;;;1.10;;
22421;SDS011;11378;51.642;7.668;2023-03-04T13:06:23;1.10;;;1.00;;
22421;SDS011;11378;51.642;7.668;2023-03-04T13:19:00;0.88;;;0.88;;
22421;SDS011;11378;51.642;7.668;2023-03-04T13:21:27;1.85;;;0.95;;
22421;SDS011;11378;51.642;7.668;2023-03-04T13:24:00;1.08;;;0.90;;
22421;SDS011;11378;51.642;7.668;2023-03-04T13:31:59;2.75;;;1.08;;
22421;SDS011;11378;51.642;7.668;2023-03-04T13:42:39;1.17;;;0.80;;
22421;SDS011;11378;51.642;7.668;2023-03-04T13:45:27;1.83;;;1.00;;
22421;SDS011;11378;51.642;7.668;2023-03-04T13:47:52;1.00;;;0.90;;
22421;SDS011;11378;51.642;7.668;2023-03-04T13:50:23;0.80;;;0.80;;
22421;SDS011;11378;51.642;7.668;2023-03-04T13:52:50;1.63;;;0.90;;
22421;SDS011;11378;51.642;7.668;2023-03-04T13:57:56;0.90;;;0.90;;
22421;SDS011;11378;51.642;7.668;2023-03-04T14:00:22;1.13;;;1.02;;
22421;SDS011;11378;51.642;7.668;2023-03-04T14:02:49;1.08;;;0.80;;
22421;SDS011;11378;51.642;7.668;2023-03-04T14:05:15;1.27;;;0.88;;
22421;SDS011;11378;51.642;7.668;2023-03-04T14:07:41;0.88;;;0.82;;
22421;SDS011;11378;51.642;7.668;2023-03-04T14:15:04;0.70;;;0.70;;
22421;SDS011;11378;51.642;7.668;2023-03-04T14:17:31;0.70;;;0.70;;
22421;SDS011;11378;51.642;7.668;2023-03-04T14:20:00;0.93;;;0.90;;
22421;SDS011;11378;51.642;7.668;2023-03-04T14:22:28;0.93;;;0.93;;
22421;SDS011;11378;51.642;7.668;2023-03-04T14:24:59;0.77;;;0.77;;
22421;SDS011;11378;51.642;7.668;2023-03-04T14:27:26;0.88;;;0.88;;
22421;SDS011;11378;51.642;7.668;2023-03-04T14:29:53;1.23;;;0.85;;
22421;SDS011;11378;51.642;7.668;2023-03-04T14:32:20;1.40;;;0.90;;
22421;SDS011;11378;51.642;7.668;2023-03-04T14:34:47;1.13;;;1.00;;
22421;SDS011;11378;51.642;7.668;2023-03-04T14:37:26;0.82;;;0.75;;
22421;SDS011;11378;51.642;7.668;2023-03-04T14:39:56;0.65;;;0.65;;
22421;SDS011;11378;51.642;7.668;2023-03-04T14:42:28;0.98;;;0.90;;
22421;SDS011;11378;51.642;7.668;2023-03-04T14:44:57;0.98;;;0.98;;
22421;SDS011;11378;51.642;7.668;2023-03-04T14:47:37;0.80;;;0.80;;
22421;SDS011;11378;51.642;7.668;2023-03-04T14:50:06;1.00;;;0.93;;
22421;SDS011;11378;51.642;7.668;2023-03-04T14:57:30;5.05;;;1.63;;
22421;SDS011;11378;51.642;7.668;2023-03-04T15:00:12;6.82;;;1.80;;
22421;SDS011;11378;51.642;7.668;2023-03-04T15:02:39;6.05;;;1.67;;
22421;SDS011;11378;51.642;7.668;2023-03-04T15:05:09;3.78;;;1.50;;
22421;SDS011;11378;51.642;7.668;2023-03-04T15:07:36;6.30;;;1.35;;
22421;SDS011;11378;51.642;7.668;2023-03-04T15:10:04;3.42;;;1.40;;
22421;SDS011;11378;51.642;7.668;2023-03-04T15:12:33;7.55;;;1.60;;
22421;SDS011;11378;51.642;7.668;2023-03-04T15:15:01;5.13;;;1.85;;
22421;SDS011;11378;51.642;7.668;2023-03-04T15:17:31;3.25;;;1.38;;
22421;SDS011;11378;51.642;7.668;2023-03-04T15:22:31;3.03;;;1.25;;
22421;SDS011;11378;51.642;7.668;2023-03-04T15:24:57;2.90;;;1.40;;
22421;SDS011;11378;51.642;7.668;2023-03-04T15:27:26;4.90;;;1.20;;
22421;SDS011;11378;51.642;7.668;2023-03-04T15:29:53;1.13;;;1.00;;
22421;SDS011;11378;51.642;7.668;2023-03-04T15:32:26;2.22;;;1.15;;
22421;SDS011;11378;51.642;7.668;2023-03-04T15:34:52;3.70;;;1.65;;
22421;SDS011;11378;51.642;7.668;2023-03-04T15:37:23;1.92;;;1.20;;
22421;SDS011;11378;51.642;7.668;2023-03-04T15:39:50;7.10;;;1.50;;
22421;SDS011;11378;51.642;7.668;2023-03-04T15:42:16;3.20;;;1.42;;
22421;SDS011;11378;51.642;7.668;2023-03-04T15:44:43;3.33;;;1.30;;
22421;SDS011;11378;51.642;7.668;2023-03-04T15:47:09;2.78;;;1.30;;
22421;SDS011;11378;51.642;7.668;2023-03-04T15:49:38;2.83;;;1.38;;
22421;SDS011;11378;51.642;7.668;2023-03-04T15:52:05;3.15;;;1.25;;
22421;SDS011;11378;51.642;7.668;2023-03-04T15:54:31;1.73;;;1.20;;
22421;SDS011;11378;51.642;7.668;2023-03-04T15:56:58;4.00;;;1.73;;
22421;SDS011;11378;51.642;7.668;2023-03-04T15:59:24;2.72;;;1.38;;
22421;SDS011;11378;51.642;7.668;2023-03-04T16:01:51;11.60;;;1.58;;
22421;SDS011;11378;51.642;7.668;2023-03-04T16:04:17;7.13;;;1.77;;
22421;SDS011;11378;51.642;7.668;2023-03-04T16:06:43;3.80;;;1.60;;
22421;SDS011;11378;51.642;7.668;2023-03-04T16:09:11;7.25;;;1.30;;
22421;SDS011;11378;51.642;7.668;2023-03-04T16:11:41;6.53;;;1.85;;
22421;SDS011;11378;51.642;7.668;2023-03-04T16:14:13;7.50;;;1.90;;
22421;SDS011;11378;51.642;7.668;2023-03-04T16:16:40;1.92;;;1.33;;
22421;SDS011;11378;51.642;7.668;2023-03-04T16:19:07;4.38;;;1.52;;
22421;SDS011;11378;51.642;7.668;2023-03-04T16:21:34;5.47;;;1.48;;
22421;SDS011;11378;51.642;7.668;2023-03-04T16:24:00;3.72;;;1.58;;
22421;SDS011;11378;51.642;7.668;2023-03-04T16:26:27;6.68;;;1.60;;
22421;SDS011;11378;51.642;7.668;2023-03-04T16:28:54;3.38;;;1.13;;
22421;SDS011;11378;51.642;7.668;2023-03-04T16:31:20;7.90;;;1.60;;
22421;SDS011;11378;51.642;7.668;2023-03-04T16:33:46;4.80;;;1.50;;
22421;SDS011;11378;51.642;7.668;2023-03-04T16:36:13;4.68;;;1.58;;
22421;SDS011;11378;51.642;7.668;2023-03-04T16:38:40;4.50;;;1.50;;
22421;SDS011;11378;51.642;7.668;2023-03-04T16:41:13;3.45;;;1.40;;
22421;SDS011;11378;51.642;7.668;2023-03-04T16:43:40;7.78;;;1.67;;
22421;SDS011;11378;51.642;7.668;2023-03-04T16:46:07;2.53;;;1.40;;
22421;SDS011;11378;51.642;7.668;2023-03-04T16:48:33;5.45;;;1.40;;